Flight Track Log - Related Links

Times and Time Zones

All times are in EDT time to prevent confusion due to time zone crossing. See the CES5036 flight status page for this flight to view local times or setup timezone preferences in your user account.

Time Position Orientation Groundspeed Altitude Reporting Facility
EDT Latitude Longitude Course Direction KTS MPH feet Rate Location/Type
Tue 04:35:00 PM 15.7810 101.1076 North  Level Estimated
Tue 04:36:00 PM 15.8976 101.1279 North  Level Estimated
Tue 04:37:00 PM 16.0142 101.1481 North  Level Estimated
Tue 04:38:00 PM 16.1309 101.1684 North  Level Estimated
Tue 04:39:00 PM 16.2475 101.1887 North  Level Estimated
Tue 04:40:00 PM 16.3641 101.2090 North  Level Estimated
Tue 04:41:00 PM 16.4808 101.2294 North  Level Estimated
Tue 04:42:00 PM 16.5974 101.2497 10° North  Level Estimated
Tue 04:43:00 PM 16.7140 101.2701 10° North  Level Estimated
Tue 04:44:00 PM 16.8307 101.2906 10° North  Level Estimated
Tue 04:45:00 PM 16.9473 101.3110 10° North  Level Estimated
Tue 04:46:00 PM 17.0639 101.3315 10° North  Level Estimated
Tue 04:47:00 PM 17.1805 101.3520 10° North  Level Estimated
Tue 04:48:00 PM 17.2971 101.3725 10° North  Level Estimated
Tue 04:49:00 PM 17.4138 101.3931 10° North  Level Estimated
Tue 04:50:00 PM 17.5304 101.4136 10° North  Level Estimated
Tue 04:51:00 PM 17.6470 101.4342 10° North  Level Estimated
Tue 04:52:00 PM 17.7636 101.4549 10° North  Level Estimated
Tue 04:53:00 PM 17.8802 101.4755 10° North  Level Estimated
Tue 04:54:00 PM 17.9968 101.4962 10° North  Level Estimated
Tue 04:55:00 PM 18.1134 101.5169 10° North  Level Estimated
Tue 04:56:00 PM 18.2300 101.5377 10° North  Level Estimated
Tue 04:57:00 PM 18.3466 101.5584 10° North  Level Estimated
Tue 04:58:00 PM 18.4632 101.5792 10° North  Level Estimated
Tue 04:59:00 PM 18.5798 101.6000 10° North  Level Estimated
Tue 05:00:00 PM 18.6964 101.6209 10° North  Level Estimated
Tue 05:01:00 PM 18.8130 101.6418 10° North  Level Estimated
Tue 05:02:00 PM 18.9296 101.6627 10° North  Level Estimated
Tue 05:03:00 PM 19.0462 101.6836 10° North  Level Estimated
Tue 05:04:00 PM 19.1627 101.7046 10° North  Level Estimated
Tue 05:05:00 PM 19.2793 101.7256 10° North  Level Estimated
Tue 05:06:00 PM 19.3959 101.7466 10° North  Level Estimated
Tue 05:07:00 PM 19.5125 101.7677 10° North  Level Estimated
Tue 05:08:00 PM 19.6290 101.7888 10° North  Level Estimated
Tue 05:09:00 PM 19.7456 101.8099 10° North  Level Estimated
Tue 05:10:00 PM 19.8622 101.8310 10° North  Level Estimated
Tue 05:11:00 PM 19.9787 101.8522 10° North  Level Estimated
Tue 05:12:00 PM 20.0953 101.8734 10° North  Level Estimated
Tue 05:13:00 PM 20.2119 101.8947 10° North  Level Estimated
Tue 05:14:00 PM 20.3284 101.9159 10° North  Level Estimated
Tue 05:15:00 PM 20.4450 101.9372 10° North  Level Estimated
Tue 05:16:00 PM 20.5615 101.9586 10° North  Level Estimated
Tue 05:17:00 PM 20.6781 101.9800 10° North  Level Estimated
Tue 05:18:00 PM 20.7946 102.0014 10° North  Level Estimated
Tue 05:19:00 PM 20.9112 102.0228 10° North  Level Estimated
Tue 05:20:00 PM 21.0277 102.0443 10° North  Level Estimated
Tue 05:21:00 PM 21.1443 102.0658 10° North  Level Estimated
Tue 05:22:00 PM 21.2608 102.0873 10° North  Level Estimated
Tue 05:23:00 PM 21.3773 102.1089 10° North  Level Estimated
Tue 05:24:00 PM 21.4939 102.1305 10° North  Level Estimated
Tue 05:25:00 PM 21.6104 102.1522 10° North  Level Estimated
Tue 05:26:00 PM 21.7269 102.1738 10° North  Level Estimated
Tue 05:27:00 PM 21.8434 102.1955 10° North  Level Estimated
Tue 05:28:00 PM 21.9599 102.2173 10° North  Level Estimated
Tue 05:29:00 PM 22.0765 102.2391 10° North  Level Estimated
Tue 05:30:00 PM 22.1930 102.2609 10° North  Level Estimated
Tue 05:31:00 PM 22.3095 102.2828 10° North  Level Estimated
Tue 05:32:00 PM 22.4260 102.3046 10° North  Level Estimated
Tue 05:33:00 PM 22.5425 102.3266 10° North  Level Estimated
Tue 05:34:00 PM 22.6590 102.3485 10° North  Level Estimated
Tue 05:35:00 PM 22.7755 102.3705 10° North  Level Estimated
Tue 05:36:00 PM 22.8920 102.3926 10° North  Level Estimated
Tue 05:37:00 PM 23.0085 102.4147 10° North  Level Estimated
Tue 05:38:00 PM 23.1250 102.4368 10° North  Level Estimated
Tue 05:39:00 PM 23.2415 102.4589 10° North  Level Estimated
Tue 05:40:00 PM 23.3580 102.4811 10° North  Level Estimated
Tue 05:41:00 PM 23.4744 102.5034 10° North  Level Estimated
Tue 05:42:00 PM 23.5909 102.5256 10° North  Level Estimated
Tue 05:43:00 PM 23.7074 102.5480 10° North  Level Estimated
Tue 05:44:00 PM 23.8239 102.5703 10° North  Level Estimated
Tue 05:45:00 PM 23.9403 102.5927 10° North  Level Estimated
Tue 05:46:00 PM 24.0568 102.6151 10° North  Level Estimated
Tue 05:47:00 PM 24.1732 102.6376 10° North  Level Estimated
Tue 05:48:00 PM 24.2897 102.6601 10° North  Level Estimated
Tue 05:49:00 PM 24.4062 102.6827 10° North  Level Estimated
Tue 05:50:00 PM 24.5226 102.7053 10° North  Level Estimated
Tue 05:51:00 PM 24.6391 102.7279 10° North  Level Estimated
Tue 05:52:00 PM 24.7555 102.7506 10° North  Level Estimated
Tue 05:53:00 PM 24.8719 102.7733 10° North  Level Estimated
Tue 05:54:00 PM 24.9884 102.7961 10° North  Level Estimated
Tue 05:55:00 PM 25.1048 102.8189 10° North  Level Estimated
Tue 05:55:34 PM 23.7487 101.9151 22° Northeast 467 537 35,100  Level FlightAware ADS-B (ZPPP / KMG)
Tue 05:56:00 PM 25.2212 102.8418 10° North  Level Estimated
Tue 05:56:04 PM 23.8104 101.9428 22° Northeast 468 539 35,100  Level FlightAware ADS-B (ZPPP / KMG)
Tue 05:56:21 PM 23.8434 101.9576 22° Northeast 468 539 35,100  Level FlightAware ADS-B (ZPPP / KMG)
Tue 05:56:42 PM 23.8868 101.9771 22° Northeast 469 540 35,100  Level FlightAware ADS-B (ZPPP / KMG)
Tue 05:57:39 PM 24.0017 102.0288 22° Northeast 468 539 35,100  Level FlightAware ADS-B (ZPPP / KMG)
Tue 05:58:06 PM 24.0550 102.0528 22° Northeast 467 537 35,100  Level FlightAware ADS-B (ZPPP / KMG)
Tue 05:58:39 PM 24.1223 102.0832 22° Northeast 466 536 35,100  Level FlightAware ADS-B (ZPPP / KMG)
Tue 05:59:10 PM 24.1822 102.1102 22° Northeast 465 535 35,100  Level FlightAware ADS-B (ZPPP / KMG)
Tue 05:59:40 PM 24.2426 102.1376 22° Northeast 463 533 35,100  Level FlightAware ADS-B (ZPPP / KMG)
Tue 06:00:11 PM 24.3061 102.1662 22° Northeast 462 532 35,100  Level FlightAware ADS-B (ZPPP / KMG)
Tue 06:00:39 PM 24.3588 102.1901 22° Northeast 462 532 35,100  Level FlightAware ADS-B (ZPPP / KMG)
Tue 06:01:11 PM 24.4241 102.2197 22° Northeast 463 533 35,100  Level FlightAware ADS-B (ZPPP / KMG)
Tue 06:01:41 PM 24.4832 102.2466 22° Northeast 463 533 35,100  Level FlightAware ADS-B (ZPPP / KMG)
Tue 06:02:12 PM 24.5451 102.2747 22° Northeast 464 534 35,100  Level FlightAware ADS-B (ZPPP / KMG)
Tue 06:02:39 PM 24.5993 102.2993 22° Northeast 464 534 35,100  Level FlightAware ADS-B (ZPPP / KMG)
Tue 06:03:10 PM 24.6592 102.3267 22° Northeast 463 533 35,100  Level FlightAware ADS-B (ZPPP / KMG)
Tue 06:03:42 PM 24.7231 102.3557 22° Northeast 463 533 35,100  Level FlightAware ADS-B (ZPPP / KMG)
Tue 06:04:12 PM 24.7834 102.3832 22° Northeast 463 533 35,100  Level FlightAware ADS-B (ZPPP / KMG)
Tue 06:04:42 PM 24.8427 102.4103 22° Northeast 462 532 35,100  Level FlightAware ADS-B (ZPPP / KMG)
Tue 06:05:10 PM 24.8969 102.4351 22° Northeast 462 532 35,100  Level FlightAware ADS-B (ZPPP / KMG)
Tue 06:05:40 PM 24.9555 102.4619 22° Northeast 462 532 35,100  Level FlightAware ADS-B (ZPPP / KMG)
Tue 06:06:11 PM 25.0192 102.4910 22° Northeast 462 532 35,100  Level FlightAware ADS-B (ZPPP / KMG)
Tue 06:06:39 PM 25.0742 102.5164 23° Northeast 462 532 35,100  Level FlightAware ADS-B (ZPPP / KMG)
Tue 06:07:19 PM 25.1516 102.5574 26° Northeast 463 533 35,100  Level FlightAware ADS-B (ZPPP / KMG)
Tue 06:07:52 PM 25.2164 102.5923 26° Northeast 463 533 35,100  Level FlightAware ADS-B (ZPPP / KMG)
Tue 06:08:21 PM 25.2695 102.6211 26° Northeast 462 532 35,100  Level FlightAware ADS-B (ZPPP / KMG)
Tue 06:08:50 PM 25.3253 102.6512 26° Northeast 462 532 35,100  Level FlightAware ADS-B (ZPPP / KMG)
Tue 06:09:10 PM 25.3625 102.6713 26° Northeast 461 531 35,100  Level FlightAware ADS-B (ZPPP / KMG)
Tue 06:09:50 PM 25.4401 102.7133 26° Northeast 461 531 35,100  Level FlightAware ADS-B (ZPPP / KMG)
Tue 06:10:00 PM 25.4581 102.7231 26° Northeast 460 529 35,100  Level FlightAware ADS-B (ZPPP / KMG)
Tue 06:13:56 PM 25.9094 102.9688 26° Northeast 457 526 35,100  Level FlightAware ADS-B (ZPPP / KMG)
Tue 06:14:00 PM 25.9214 102.8291 12° North  Level Estimated
Tue 06:15:11 PM 26.0518 103.0468 26° Northeast 457 526 35,100  Level FlightAware ADS-B (ZPPP / KMG)
Tue 06:15:41 PM 26.1091 103.0783 26° Northeast 456 525 35,100  Level FlightAware ADS-B (ZPPP / KMG)
Tue 06:15:53 PM 26.1318 103.0907 26° Northeast 456 525 35,100  Level FlightAware ADS-B (ZPPP / KMG)
Tue 06:18:00 PM 26.3787 103.1365 North  Level Estimated
Tue 06:19:00 PM 26.4954 103.1581 North  Level Estimated
Tue 06:20:00 PM 26.6120 103.1798 North  Level Estimated
Tue 06:21:00 PM 26.7287 103.2016 North  Level Estimated
Tue 06:22:00 PM 26.8453 103.2234 North  Level Estimated
Tue 06:23:00 PM 26.9620 103.2452 North  Level Estimated
Tue 06:24:00 PM 27.0786 103.2671 North  Level Estimated
Tue 06:25:00 PM 27.1952 103.2890 North  Level Estimated
Tue 06:26:00 PM 27.3118 103.3110 10° North  Level Estimated
Tue 06:27:00 PM 27.4285 103.3331 10° North  Level Estimated
Tue 06:28:00 PM 27.5451 103.3551 10° North  Level Estimated
Tue 06:29:00 PM 27.6617 103.3773 10° North  Level Estimated
Tue 06:30:00 PM 27.7783 103.3994 10° North  Level Estimated
Tue 06:31:00 PM 27.8949 103.4217 10° North  Level Estimated
Tue 06:32:00 PM 28.0116 103.4439 10° North  Level Estimated
Tue 06:33:00 PM 28.1282 103.4662 10° North  Level Estimated
Tue 06:34:00 PM 28.2447 103.4886 10° North  Level Estimated
Tue 06:35:00 PM 28.3613 103.5110 10° North  Level Estimated
Tue 06:36:00 PM 28.4779 103.5335 10° North  Level Estimated
Tue 06:37:00 PM 28.5945 103.5560 10° North  Level Estimated
Tue 06:38:00 PM 28.7111 103.5785 10° North  Level Estimated
Tue 06:39:00 PM 28.8277 103.6011 10° North  Level Estimated
Tue 06:40:00 PM 28.9443 103.6238 10° North  Level Estimated
Tue 06:41:00 PM 29.0608 103.6465 10° North  Level Estimated
Tue 06:42:00 PM 29.1774 103.6693 10° North  Level Estimated
Tue 06:43:00 PM 29.2940 103.6921 10° North  Level Estimated
Tue 06:44:00 PM 29.4105 103.7150 10° North  Level Estimated
Tue 06:45:00 PM 29.5271 103.7379 10° North  Level Estimated
Tue 06:46:00 PM 29.6437 103.7608 10° North  Level Estimated
Tue 06:47:00 PM 29.7602 103.7839 10° North  Level Estimated
Tue 06:48:00 PM 29.8768 103.8069 10° North  Level Estimated
Tue 06:49:00 PM 29.9865 103.8287 10° North  Level Estimated
Tue 06:50:00 PM 30.0962 103.8505 10° North  Level Estimated
Tue 06:51:00 PM 30.2059 103.8724 10° North  Level Estimated
Tue 06:52:00 PM 30.3157 103.8943 10° North  Level Estimated
Tue 06:53:00 PM 30.4254 103.9163 10° North  Level Estimated
Tue 06:54:00 PM 30.5351 103.9383 10° North  Level Estimated
Tue 06:55:00 PM 30.5785 103.9471 10° North  Level Estimated
Tue 06:56:00 PM 30.5785 103.9471 North  Level Estimated
Tue 06:57:00 PM 30.5785 103.9471 North  Level Estimated
Tue 06:58:00 PM 30.5785 103.9471 North  Level Estimated
Tue 06:59:00 PM 30.5785 103.9471 North  Level Estimated
Tue 07:00:00 PM 30.5785 103.9471 North  Level Estimated
Tue 07:01:00 PM 30.5785 103.9471 North  Level Estimated
Tue 07:02:00 PM 30.5785 103.9471 North  Level Estimated
Tue 07:03:00 PM 30.5785 103.9471 North  Level Estimated
Tue 07:04:00 PM 30.5785 103.9471 North  Level Estimated
Tue 07:05:00 PM 30.5785 103.9471 North  Level Estimated
Tue 07:06:00 PM 30.5785 103.9471 North  Level Estimated
Tue 07:07:00 PM 30.5785 103.9471 North  Level Estimated

Login

Don't have an account? Register now (free) for customized features, flight alerts, and more!